createdAt,value
2017-07-18T00:00:53.186Z,61.70
2017-07-18T00:03:56.528Z,61.70
2017-07-18T00:06:59.910Z,61.90
2017-07-18T00:10:03.250Z,62.00
2017-07-18T00:13:07.392Z,61.90
2017-07-18T00:16:10.731Z,61.90
2017-07-18T00:19:14.114Z,61.90
2017-07-18T00:22:17.459Z,62.00
2017-07-18T00:25:20.831Z,62.00
2017-07-18T00:28:24.315Z,62.10
2017-07-18T00:31:27.655Z,62.00
2017-07-18T00:34:31.027Z,62.10
2017-07-18T00:37:34.374Z,61.70
2017-07-18T00:40:37.743Z,62.00
2017-07-18T00:43:41.850Z,62.20
2017-07-18T00:46:45.994Z,62.20
2017-07-18T00:49:49.366Z,62.10
2017-07-18T00:52:53.475Z,62.00
2017-07-18T00:55:57.694Z,62.30
2017-07-18T00:59:01.810Z,62.40
2017-07-18T01:02:05.952Z,62.50
2017-07-18T01:05:09.291Z,62.40
2017-07-18T01:08:13.435Z,63.20
2017-07-18T01:11:16.778Z,62.50
2017-07-18T01:14:20.156Z,62.70
2017-07-18T01:17:23.498Z,62.30
2017-07-18T01:20:27.642Z,62.60
2017-07-18T01:23:31.222Z,62.60
2017-07-18T01:26:35.330Z,63.10
2017-07-18T01:29:39.470Z,63.30
2017-07-18T01:32:42.826Z,63.30
2017-07-18T01:35:46.201Z,62.90
2017-07-18T01:38:49.542Z,63.00
2017-07-18T01:41:53.680Z,62.60
2017-07-18T01:44:57.018Z,62.60
2017-07-18T01:48:00.391Z,63.00
2017-07-18T01:51:03.737Z,63.10
2017-07-18T01:54:07.107Z,62.80
2017-07-18T01:57:10.453Z,62.70
2017-07-18T02:00:13.830Z,62.70
2017-07-18T02:03:17.178Z,63.00
2017-07-18T02:06:21.315Z,63.10
2017-07-18T02:09:24.802Z,63.10
2017-07-18T02:12:28.910Z,63.10
2017-07-18T02:15:33.048Z,63.50
2017-07-18T02:18:36.390Z,63.40
2017-07-18T02:21:39.763Z,63.40
2017-07-18T02:24:43.106Z,63.30
2017-07-18T02:27:46.482Z,63.20
2017-07-18T02:30:49.823Z,63.20
2017-07-18T02:33:53.962Z,63.20
2017-07-18T02:36:57.303Z,63.10
2017-07-18T02:40:00.686Z,63.40
2017-07-18T02:43:04.022Z,63.50
2017-07-18T02:46:08.177Z,63.20
2017-07-18T02:49:11.938Z,63.10
2017-07-18T02:52:16.047Z,63.20
2017-07-18T02:55:19.422Z,63.20
2017-07-18T02:58:22.762Z,63.20
2017-07-18T03:01:26.137Z,63.40
2017-07-18T03:04:29.479Z,63.60
2017-07-18T03:07:32.870Z,63.40
2017-07-18T03:10:36.214Z,63.20
2017-07-18T03:13:39.590Z,63.60
2017-07-18T03:16:42.930Z,63.30
2017-07-18T03:19:47.086Z,63.20
2017-07-18T03:22:50.558Z,63.20
2017-07-18T03:25:54.677Z,63.80
2017-07-18T03:28:58.051Z,63.70
2017-07-18T03:32:01.398Z,63.40
2017-07-18T03:35:05.540Z,63.10
2017-07-18T03:38:08.875Z,63.00
2017-07-18T03:41:12.263Z,63.30
2017-07-18T03:44:15.603Z,63.30
2017-07-18T03:47:19.813Z,63.60
2017-07-18T03:50:23.159Z,63.50
2017-07-18T03:53:26.538Z,63.80
2017-07-18T03:56:29.879Z,63.70
2017-07-18T03:59:33.258Z,64.00
2017-07-18T04:02:36.782Z,64.00
2017-07-18T04:05:40.546Z,64.30
2017-07-18T04:08:43.918Z,64.00
2017-07-18T04:11:47.262Z,63.50
2017-07-18T04:14:50.639Z,63.70
2017-07-18T04:17:53.982Z,64.00
2017-07-18T04:20:57.363Z,64.00
2017-07-18T04:24:01.498Z,64.20
2017-07-18T04:27:04.877Z,64.10
2017-07-18T04:30:09.304Z,64.50
2017-07-18T04:33:13.391Z,64.70
2017-07-18T04:36:16.729Z,64.70
2017-07-18T04:39:20.031Z,64.90
2017-07-18T04:42:23.371Z,64.60
2017-07-18T04:45:26.670Z,64.80
2017-07-18T04:48:30.021Z,65.00
2017-07-18T04:51:33.370Z,65.70
2017-07-18T04:54:36.799Z,65.70
2017-07-18T04:57:40.859Z,65.60
2017-07-18T05:00:44.231Z,65.60
2017-07-18T05:03:47.691Z,65.40
2017-07-18T05:06:51.012Z,66.20
2017-07-18T05:09:54.394Z,65.80
2017-07-18T05:12:58.481Z,65.70
2017-07-18T05:16:01.836Z,65.60
2017-07-18T05:19:05.157Z,66.60
2017-07-18T05:22:08.528Z,66.60
2017-07-18T05:25:11.828Z,67.00
2017-07-18T05:28:15.180Z,67.00
2017-07-18T05:31:19.251Z,67.70
2017-07-18T05:34:22.638Z,67.30
2017-07-18T05:37:26.090Z,67.70
2017-07-18T05:40:29.391Z,67.90
2017-07-18T05:43:32.719Z,68.00
2017-07-18T05:46:36.040Z,68.00
2017-07-18T05:49:39.391Z,68.10
2017-07-18T05:52:43.509Z,68.40
2017-07-18T05:55:46.871Z,68.30
2017-07-18T05:58:50.196Z,68.70
2017-07-18T06:01:54.314Z,69.20
2017-07-18T06:04:57.632Z,69.00
2017-07-18T06:08:00.988Z,69.60
2017-07-18T06:11:04.316Z,69.80
2017-07-18T06:14:07.672Z,70.10
2017-07-18T06:17:10.992Z,70.10
2017-07-18T06:20:15.109Z,71.10
2017-07-18T06:23:19.355Z,70.60
2017-07-18T06:26:22.680Z,70.60
2017-07-18T06:29:26.823Z,71.10
2017-07-18T06:32:30.129Z,71.10
2017-07-18T06:35:33.478Z,70.90
2017-07-18T06:38:36.813Z,70.90
2017-07-18T06:41:40.207Z,70.90
2017-07-18T06:44:43.548Z,71.30
2017-07-18T06:47:46.907Z,70.90
2017-07-18T06:50:50.203Z,70.80
2017-07-18T06:53:53.546Z,70.90
2017-07-18T06:56:56.884Z,70.80
2017-07-18T07:00:00.284Z,70.70
2017-07-18T07:03:03.601Z,70.80
2017-07-18T07:06:06.982Z,70.80
2017-07-18T07:09:10.651Z,70.70
2017-07-18T07:12:14.741Z,70.60
2017-07-18T07:15:18.098Z,70.50
2017-07-18T07:18:21.439Z,67.90
2017-07-18T07:21:24.816Z,68.80
2017-07-18T07:24:28.947Z,68.60
2017-07-18T07:27:32.275Z,68.60
2017-07-18T07:30:35.628Z,67.10
2017-07-18T07:33:39.692Z,65.90
2017-07-18T07:36:43.051Z,65.80
2017-07-18T07:39:46.382Z,67.40
2017-07-18T07:42:49.720Z,65.70
2017-07-18T07:45:53.811Z,67.90
2017-07-18T07:48:57.319Z,67.10
2017-07-18T07:52:00.698Z,65.90
2017-07-18T07:55:04.024Z,65.40
2017-07-18T07:58:07.354Z,66.50
2017-07-18T08:01:10.690Z,66.20
2017-07-18T08:04:14.043Z,66.00
2017-07-18T08:07:17.343Z,67.70
2017-07-18T08:10:20.691Z,66.60
2017-07-18T08:13:23.991Z,67.20
2017-07-18T08:16:27.338Z,67.80
2017-07-18T08:19:31.016Z,66.70
2017-07-18T08:22:35.076Z,66.00
2017-07-18T08:25:38.427Z,65.90
2017-07-18T08:28:42.543Z,67.30
2017-07-18T08:31:46.663Z,64.90
2017-07-18T08:34:49.968Z,64.90
2017-07-18T08:37:53.331Z,65.80
2017-07-18T08:40:56.669Z,64.50
2017-07-18T08:44:00.023Z,64.30
2017-07-18T08:47:03.342Z,66.50
2017-07-18T08:50:07.457Z,63.20
2017-07-18T08:53:10.766Z,63.20
2017-07-18T08:56:14.141Z,64.00
2017-07-18T08:59:18.242Z,61.90
2017-07-18T09:02:21.614Z,61.60
2017-07-18T09:05:24.934Z,62.30
2017-07-18T09:08:28.310Z,63.00
2017-07-18T09:11:31.855Z,64.20
2017-07-18T09:14:35.214Z,64.00
2017-07-18T09:17:38.544Z,65.00
2017-07-18T09:20:41.863Z,63.70
2017-07-18T09:23:45.232Z,64.40
2017-07-18T09:26:48.579Z,62.60
2017-07-18T09:29:51.915Z,65.60
2017-07-18T09:32:55.243Z,62.40
2017-07-18T09:35:58.587Z,64.60
2017-07-18T09:39:01.931Z,63.00
2017-07-18T09:42:05.283Z,62.00
2017-07-18T09:45:08.629Z,59.50
2017-07-18T09:48:12.072Z,59.50
2017-07-18T09:51:15.410Z,59.90
2017-07-18T09:54:27.466Z,62.60
2017-07-18T09:57:30.827Z,59.20
2017-07-18T10:03:38.423Z,58.20
2017-07-18T10:06:41.747Z,58.10
2017-07-18T10:09:45.103Z,60.50
2017-07-18T10:12:48.419Z,59.80
2017-07-18T10:15:51.766Z,58.90
2017-07-18T10:18:55.279Z,58.60
2017-07-18T10:21:58.662Z,58.90
2017-07-18T10:25:01.991Z,57.90
2017-07-18T10:28:05.319Z,56.10
2017-07-18T10:31:08.644Z,58.10
2017-07-18T10:34:12.017Z,58.40
2017-07-18T10:37:15.334Z,58.40
2017-07-18T10:40:18.668Z,55.30
2017-07-18T10:43:22.009Z,58.90
2017-07-18T10:46:26.076Z,55.30
2017-07-18T10:49:29.435Z,55.30
2017-07-18T10:52:33.519Z,56.10
2017-07-18T10:55:36.886Z,56.10
2017-07-18T10:58:40.212Z,55.90
2017-07-18T11:01:43.568Z,55.20
2017-07-18T11:04:46.931Z,55.40
2017-07-18T11:07:51.035Z,54.40
2017-07-18T11:10:54.385Z,54.30
2017-07-18T11:13:57.684Z,53.60
2017-07-18T11:17:01.065Z,52.00
2017-07-18T11:20:04.410Z,54.20
2017-07-18T11:23:07.766Z,53.10
2017-07-18T11:26:11.120Z,54.30
2017-07-18T11:29:14.439Z,52.20
2017-07-18T11:32:17.802Z,52.40
2017-07-18T11:35:21.132Z,52.40
2017-07-18T11:38:24.490Z,50.90
2017-07-18T11:41:28.567Z,52.40
2017-07-18T11:44:31.922Z,52.40
2017-07-18T11:47:35.282Z,50.90
2017-07-18T11:50:38.630Z,48.90
2017-07-18T11:53:42.111Z,50.50
2017-07-18T11:56:45.430Z,51.10
2017-07-18T11:59:48.787Z,48.80
2017-07-18T12:02:52.089Z,48.80
2017-07-18T12:05:55.415Z,49.20
2017-07-18T12:08:59.601Z,49.30
2017-07-18T12:12:02.954Z,51.20
2017-07-18T12:15:06.274Z,48.60
2017-07-18T12:18:09.619Z,50.90
2017-07-18T12:21:13.104Z,48.60
2017-07-18T12:24:16.423Z,45.70
2017-07-18T12:27:19.767Z,48.10
2017-07-18T12:30:23.078Z,45.70
2017-07-18T12:33:26.437Z,47.50
2017-07-18T12:36:30.923Z,45.60
2017-07-18T12:39:34.246Z,45.60
2017-07-18T12:42:38.343Z,47.90
2017-07-18T12:45:41.686Z,47.80
2017-07-18T12:48:45.142Z,46.00
2017-07-18T12:51:49.257Z,43.20
2017-07-18T12:54:53.395Z,45.10
2017-07-18T12:57:56.734Z,45.00
2017-07-18T13:01:00.190Z,45.90
2017-07-18T13:04:03.542Z,45.90
2017-07-18T13:07:06.922Z,46.30
2017-07-18T13:10:10.224Z,45.50
2017-07-18T13:13:13.571Z,44.70
2017-07-18T13:16:16.922Z,42.70
2017-07-18T13:19:20.299Z,39.30
2017-07-18T13:22:23.776Z,42.20
2017-07-18T13:25:27.106Z,43.90
2017-07-18T13:28:30.468Z,43.40
2017-07-18T13:31:33.859Z,44.90
2017-07-18T13:34:37.207Z,44.80
2017-07-18T13:37:40.507Z,45.00
2017-07-18T13:40:43.962Z,44.30
2017-07-18T13:43:47.284Z,44.20
2017-07-18T13:46:50.615Z,43.70
2017-07-18T13:49:54.725Z,43.00
2017-07-18T13:52:58.822Z,43.00
2017-07-18T13:56:02.168Z,42.90
2017-07-18T13:59:05.531Z,43.20
2017-07-18T14:02:08.854Z,41.70
2017-07-18T14:05:12.207Z,41.80
2017-07-18T14:08:15.571Z,43.10
2017-07-18T14:11:18.891Z,46.60
2017-07-18T14:14:22.247Z,47.70
2017-07-18T14:17:25.579Z,44.90
2017-07-18T14:20:28.957Z,44.80
2017-07-18T14:23:32.306Z,40.00
2017-07-18T14:26:35.657Z,41.50
2017-07-18T14:29:38.971Z,44.90
2017-07-18T14:32:42.351Z,45.40
2017-07-18T14:35:45.658Z,43.00
2017-07-18T14:38:48.995Z,46.30
2017-07-18T14:41:53.060Z,47.60
2017-07-18T14:44:56.415Z,46.80
2017-07-18T14:47:59.931Z,46.20
2017-07-18T14:51:03.260Z,43.80
2017-07-18T14:54:06.612Z,44.00
2017-07-18T14:57:09.927Z,43.50
2017-07-18T15:00:13.295Z,44.10
2017-07-18T15:03:16.615Z,40.80
2017-07-18T15:06:19.964Z,43.80
2017-07-18T15:09:24.032Z,42.10
2017-07-18T15:12:27.406Z,42.10
2017-07-18T15:15:30.708Z,44.60
2017-07-18T15:18:34.077Z,41.80
2017-07-18T15:21:37.383Z,44.90
2017-07-18T15:24:40.711Z,44.00
2017-07-18T15:27:44.050Z,42.20
2017-07-18T15:30:48.149Z,44.20
2017-07-18T15:33:51.474Z,44.20
2017-07-18T15:36:54.824Z,41.60
2017-07-18T15:39:58.147Z,44.70
2017-07-18T15:43:01.504Z,41.20
2017-07-18T15:46:04.830Z,41.70
2017-07-18T15:49:08.164Z,42.80
2017-07-18T15:52:12.250Z,41.80
2017-07-18T15:55:15.627Z,41.70
2017-07-18T15:58:18.971Z,42.30
2017-07-18T16:01:23.090Z,42.90
2017-07-18T16:04:27.786Z,42.70
2017-07-18T16:07:31.163Z,42.60
2017-07-18T16:10:34.527Z,43.70
2017-07-18T16:13:37.859Z,44.10
2017-07-18T16:16:41.225Z,44.30
2017-07-18T16:19:44.546Z,44.80
2017-07-18T16:22:47.894Z,45.30
2017-07-18T16:25:51.982Z,46.10
2017-07-18T16:28:55.369Z,46.10
2017-07-18T16:31:58.720Z,46.70
2017-07-18T16:35:02.098Z,46.40
2017-07-18T16:38:05.563Z,45.90
2017-07-18T16:41:08.878Z,47.40
2017-07-18T16:44:12.234Z,46.10
2017-07-18T16:47:15.535Z,46.80
2017-07-18T16:50:18.883Z,47.00
2017-07-18T16:53:22.234Z,46.60
2017-07-18T16:56:25.566Z,46.50
2017-07-18T16:59:28.891Z,46.60
2017-07-18T17:02:32.243Z,46.30
2017-07-18T17:05:35.956Z,46.80
2017-07-18T17:08:40.036Z,47.20
2017-07-18T17:11:43.411Z,47.10
2017-07-18T17:14:46.731Z,46.40
2017-07-18T17:17:50.851Z,47.40
2017-07-18T17:20:54.934Z,46.60
2017-07-18T17:23:58.287Z,46.30
2017-07-18T17:27:01.611Z,47.00
2017-07-18T17:30:05.013Z,47.10
2017-07-18T17:33:08.362Z,46.70
2017-07-18T17:36:11.689Z,47.40
2017-07-18T17:39:15.032Z,47.20
2017-07-18T17:42:18.350Z,46.50
2017-07-18T17:45:21.750Z,46.70
2017-07-18T17:48:25.075Z,47.50
2017-07-18T17:51:29.447Z,47.30
2017-07-18T17:54:33.657Z,47.80
2017-07-18T17:57:37.197Z,47.80
2017-07-18T18:00:40.528Z,47.70
2017-07-18T18:03:43.902Z,47.80
2017-07-18T18:06:47.239Z,47.40
2017-07-18T18:09:50.587Z,48.30
2017-07-18T18:12:53.906Z,49.00
2017-07-18T18:15:57.241Z,47.80
2017-07-18T18:19:01.299Z,48.80
2017-07-18T18:22:04.689Z,47.30
2017-07-18T18:25:08.043Z,48.50
2017-07-18T18:28:12.164Z,48.80
2017-07-18T18:31:15.622Z,48.70
2017-07-18T18:34:18.943Z,50.00
2017-07-18T18:37:22.311Z,49.40
2017-07-18T18:40:25.663Z,49.10
2017-07-18T18:43:29.056Z,48.80
2017-07-18T18:46:32.419Z,49.20
2017-07-18T18:49:35.789Z,50.00
2017-07-18T18:52:39.124Z,49.80
2017-07-18T18:55:42.476Z,50.20
2017-07-18T18:58:45.831Z,52.70
2017-07-18T19:01:49.987Z,52.70
2017-07-18T19:04:53.481Z,52.70
2017-07-18T19:07:56.821Z,53.50
2017-07-18T19:11:00.577Z,55.90
2017-07-18T19:14:03.935Z,54.20
2017-07-18T19:17:08.092Z,54.90
2017-07-18T19:20:11.457Z,54.70
2017-07-18T19:23:15.595Z,55.60
2017-07-18T19:26:19.263Z,55.60
2017-07-18T19:29:22.583Z,55.30
2017-07-18T19:32:26.715Z,55.60
2017-07-18T19:35:30.048Z,55.50
2017-07-18T19:38:33.404Z,56.50
2017-07-18T19:41:36.749Z,55.60
2017-07-18T19:44:46.547Z,56.10
2017-07-18T19:47:50.208Z,56.00
2017-07-18T19:50:53.552Z,56.80
2017-07-18T19:53:56.961Z,57.10
2017-07-18T19:57:00.406Z,57.10
2017-07-18T20:00:03.791Z,58.60
2017-07-18T20:03:07.931Z,58.10
2017-07-18T20:06:11.346Z,58.60
2017-07-18T20:09:14.663Z,58.10
2017-07-18T20:12:18.015Z,58.30
2017-07-18T20:15:22.106Z,59.00
2017-07-18T20:18:25.483Z,59.00
2017-07-18T20:21:29.200Z,58.80
2017-07-18T20:24:32.518Z,58.80
2017-07-18T20:27:36.667Z,59.00
2017-07-18T20:30:40.002Z,59.00
2017-07-18T20:33:43.366Z,59.50
2017-07-18T20:36:46.678Z,58.70
2017-07-18T20:39:50.035Z,59.10
2017-07-18T20:42:54.132Z,59.20
2017-07-18T20:45:57.471Z,59.10
2017-07-18T20:49:00.863Z,59.10
2017-07-18T20:52:04.165Z,59.30
2017-07-18T20:55:07.553Z,59.50
2017-07-18T20:58:10.910Z,59.20
2017-07-18T21:01:15.069Z,58.40
2017-07-18T21:04:18.735Z,58.40
2017-07-18T21:07:22.069Z,59.20
2017-07-18T21:10:25.439Z,58.70
2017-07-18T21:13:29.546Z,59.50
2017-07-18T21:16:33.663Z,60.00
2017-07-18T21:19:37.022Z,59.90
2017-07-18T21:22:40.393Z,59.80
2017-07-18T21:25:44.063Z,59.40
2017-07-18T21:28:47.479Z,59.60
2017-07-18T21:31:50.866Z,59.90
2017-07-18T21:34:54.202Z,59.90
2017-07-18T21:37:57.684Z,59.90
2017-07-18T21:41:01.056Z,60.20
2017-07-18T21:44:04.440Z,60.50
2017-07-18T21:47:07.808Z,59.80
2017-07-18T21:50:11.146Z,60.20
2017-07-18T21:53:14.525Z,60.20
2017-07-18T21:56:18.653Z,60.70
2017-07-18T21:59:22.047Z,60.60
2017-07-18T22:02:25.372Z,60.50
2017-07-18T22:05:28.756Z,60.10
2017-07-18T22:08:32.263Z,60.90
2017-07-18T22:11:36.351Z,61.20
2017-07-18T22:14:39.722Z,61.10
2017-07-18T22:17:43.077Z,61.30
2017-07-18T22:20:46.465Z,61.50
2017-07-18T22:23:50.566Z,62.30
2017-07-18T22:26:53.910Z,62.10
2017-07-18T22:29:57.374Z,62.10
2017-07-18T22:33:01.499Z,62.30
2017-07-18T22:36:04.861Z,62.30
2017-07-18T22:39:08.170Z,61.90
2017-07-18T22:42:11.551Z,61.60
2017-07-18T22:45:14.898Z,61.90
2017-07-18T22:48:27.068Z,62.00
2017-07-18T22:51:31.180Z,62.40
2017-07-18T22:54:34.606Z,62.20
2017-07-18T22:57:37.967Z,62.20
2017-07-18T23:00:41.272Z,61.90
2017-07-18T23:03:44.740Z,61.70
2017-07-18T23:06:48.092Z,61.90
2017-07-18T23:09:52.219Z,62.40
2017-07-18T23:12:55.554Z,62.40
2017-07-18T23:15:58.915Z,62.40
2017-07-18T23:19:02.245Z,62.90
2017-07-18T23:22:05.613Z,63.10
2017-07-18T23:25:09.939Z,63.80
2017-07-18T23:28:13.312Z,63.80
2017-07-18T23:31:16.690Z,63.80
2017-07-18T23:34:20.046Z,64.30
2017-07-18T23:37:23.412Z,64.10
2017-07-18T23:40:27.499Z,64.30
2017-07-18T23:43:30.866Z,64.00
2017-07-18T23:46:34.176Z,63.80
2017-07-18T23:49:37.552Z,63.60
2017-07-18T23:52:40.855Z,64.00
2017-07-18T23:55:44.207Z,64.20
2017-07-18T23:58:48.318Z,64.50
